createdAt,value
2019-04-02T00:02:20.217Z,25.23
2019-04-02T00:04:46.342Z,23.55
2019-04-02T00:07:12.402Z,22.95
2019-04-02T00:09:38.222Z,22.85
2019-04-02T00:12:04.028Z,25.80
2019-04-02T00:14:30.149Z,24.00
2019-04-02T00:16:56.252Z,22.87
2019-04-02T00:19:22.088Z,23.32
2019-04-02T00:21:47.895Z,24.43
2019-04-02T00:24:13.965Z,22.60
2019-04-02T00:26:40.041Z,23.25
2019-04-02T00:29:05.847Z,23.40
2019-04-02T00:31:31.921Z,23.60
2019-04-02T00:33:58.023Z,23.62
2019-04-02T00:36:23.841Z,25.25
2019-04-02T00:38:52.419Z,23.03
2019-04-02T00:41:18.241Z,24.67
2019-04-02T00:43:46.796Z,25.47
2019-04-02T00:46:12.586Z,23.57
2019-04-02T00:48:41.429Z,24.40
2019-04-02T00:51:08.236Z,25.85
2019-04-02T00:53:38.029Z,24.23
2019-04-02T00:56:03.981Z,24.40
2019-04-02T00:58:33.090Z,25.20
2019-04-02T01:00:59.002Z,24.63
2019-04-02T01:03:25.120Z,24.87
2019-04-02T01:05:50.926Z,24.75
2019-04-02T01:08:17.018Z,26.73
2019-04-02T01:10:43.303Z,28.90
2019-04-02T01:13:09.160Z,25.75
2019-04-02T01:15:37.847Z,24.43
2019-04-02T01:18:03.952Z,27.35
2019-04-02T01:20:32.788Z,28.50
2019-04-02T01:22:58.616Z,27.27
2019-04-02T01:25:27.852Z,25.73
2019-04-02T01:27:53.755Z,27.90
2019-04-02T01:30:22.584Z,27.63
2019-04-02T01:32:48.422Z,24.65
2019-04-02T01:35:17.043Z,27.37
2019-04-02T01:37:42.854Z,27.37
2019-04-02T01:40:08.949Z,28.90
2019-04-02T01:42:34.775Z,26.62
2019-04-02T01:45:00.933Z,25.67
2019-04-02T01:47:29.514Z,26.70
2019-04-02T01:49:55.310Z,28.87
2019-04-02T01:52:24.017Z,28.13
2019-04-02T01:54:50.098Z,26.20
2019-04-02T01:57:17.092Z,26.65
2019-04-02T01:59:42.898Z,29.02
2019-04-02T02:02:13.168Z,27.70
2019-04-02T02:04:38.985Z,29.82
2019-04-02T02:07:07.551Z,28.10
2019-04-02T02:09:34.151Z,28.12
2019-04-02T02:12:04.045Z,27.85
2019-04-02T02:14:29.834Z,29.23
2019-04-02T02:16:55.650Z,27.93
2019-04-02T02:19:21.740Z,28.17
2019-04-02T02:21:47.571Z,28.27
2019-04-02T02:24:13.473Z,30.40
2019-04-02T02:26:39.312Z,28.23
2019-04-02T02:29:08.020Z,30.07
2019-04-02T02:31:35.973Z,29.35
2019-04-02T02:34:06.932Z,30.02
2019-04-02T02:36:32.901Z,29.25
2019-04-02T02:38:58.722Z,31.47
2019-04-02T02:41:59.209Z,30.40
2019-04-02T02:44:25.106Z,33.75
2019-04-02T02:46:50.905Z,28.00
2019-04-02T02:49:17.683Z,34.83
2019-04-02T02:51:44.102Z,36.08
2019-04-02T02:54:09.877Z,30.73
2019-04-02T02:56:35.685Z,31.00
2019-04-02T02:59:01.502Z,30.93
2019-04-02T03:01:27.806Z,30.60
2019-04-02T03:03:53.969Z,34.10
2019-04-02T03:06:20.076Z,32.78
2019-04-02T03:08:45.862Z,31.30
2019-04-02T03:11:12.029Z,34.57
2019-04-02T03:13:38.099Z,31.50
2019-04-02T03:16:03.987Z,30.52
2019-04-02T03:18:29.780Z,30.30
2019-04-02T03:20:55.952Z,26.67
2019-04-02T03:23:22.046Z,26.77
2019-04-02T03:25:47.836Z,24.07
2019-04-02T03:28:13.653Z,26.70
2019-04-02T03:30:39.836Z,29.33
2019-04-02T03:33:05.946Z,31.70
2019-04-02T03:35:33.486Z,29.25
2019-04-02T03:37:59.504Z,31.95
2019-04-02T03:40:25.565Z,33.80
2019-04-02T03:42:51.668Z,32.20
2019-04-02T03:45:17.460Z,32.08
2019-04-02T03:47:44.324Z,25.90
2019-04-02T03:50:10.866Z,27.67
2019-04-02T03:52:36.666Z,24.50
2019-04-02T03:55:04.186Z,25.93
2019-04-02T03:57:30.375Z,25.92
2019-04-02T03:59:56.212Z,25.12
2019-04-02T04:04:53.684Z,27.20
2019-04-02T04:07:21.855Z,29.57
2019-04-02T04:09:48.209Z,31.17
2019-04-02T04:12:14.181Z,31.25
2019-04-02T04:14:40.278Z,31.20
2019-04-02T04:17:06.110Z,29.45
2019-04-02T04:19:31.917Z,29.97
2019-04-02T04:21:57.741Z,28.93
2019-04-02T04:24:24.609Z,32.20
2019-04-02T04:26:51.540Z,31.23
2019-04-02T04:29:17.332Z,33.40
2019-04-02T04:31:43.144Z,32.10
2019-04-02T04:34:10.663Z,33.27
2019-04-02T04:36:36.830Z,31.75
2019-04-02T04:39:04.670Z,31.30
2019-04-02T04:41:30.748Z,32.95
2019-04-02T04:43:56.824Z,33.90
2019-04-02T04:46:22.630Z,33.92
2019-04-02T04:48:48.699Z,31.83
2019-04-02T04:51:14.795Z,34.67
2019-04-02T04:53:40.644Z,31.07
2019-04-02T04:56:09.784Z,32.93
2019-04-02T04:58:35.578Z,33.20
2019-04-02T05:01:04.943Z,33.40
2019-04-02T05:04:08.250Z,33.28
2019-04-02T05:06:34.090Z,35.17
2019-04-02T05:08:59.867Z,36.17
2019-04-02T05:11:25.652Z,35.47
2019-04-02T05:13:51.719Z,32.20
2019-04-02T05:16:17.547Z,49.83
2019-04-02T05:18:45.564Z,48.30
2019-04-02T05:21:11.090Z,37.95
2019-04-02T05:23:36.900Z,33.87
2019-04-02T05:26:02.725Z,35.77
2019-04-02T05:28:28.521Z,35.07
2019-04-02T05:30:54.351Z,35.60
2019-04-02T05:33:20.448Z,36.23
2019-04-02T05:35:46.486Z,34.45
2019-04-02T05:38:12.329Z,38.40
2019-04-02T05:40:38.372Z,33.87
2019-04-02T05:43:04.185Z,38.90
2019-04-02T05:45:30.005Z,33.70
2019-04-02T05:47:55.788Z,35.13
2019-04-02T05:50:21.623Z,32.63
2019-04-02T05:52:47.700Z,36.70
2019-04-02T05:55:13.494Z,36.83
2019-04-02T05:57:39.395Z,35.13
2019-04-02T06:00:05.905Z,35.23
2019-04-02T06:02:31.720Z,34.30
2019-04-02T06:04:57.512Z,36.03
2019-04-02T06:07:23.334Z,37.60
2019-04-02T06:09:49.143Z,35.63
2019-04-02T06:12:14.942Z,34.37
2019-04-02T06:14:40.795Z,33.57
2019-04-02T06:17:06.625Z,36.70
2019-04-02T06:19:32.412Z,34.57
2019-04-02T06:21:58.506Z,34.57
2019-04-02T06:24:24.323Z,36.48
2019-04-02T06:26:50.150Z,35.60
2019-04-02T06:29:18.697Z,36.97
2019-04-02T06:31:44.541Z,36.15
2019-04-02T06:34:10.324Z,36.77
2019-04-02T06:36:37.010Z,34.08
2019-04-02T06:39:10.865Z,35.60
2019-04-02T06:41:37.045Z,35.63
2019-04-02T06:44:04.531Z,35.28
2019-04-02T06:46:30.717Z,35.60
2019-04-02T06:49:08.080Z,35.05
2019-04-02T06:51:34.187Z,35.75
2019-04-02T06:54:00.029Z,37.45
2019-04-02T06:56:26.362Z,32.57
2019-04-02T06:58:52.835Z,36.77
2019-04-02T07:01:31.699Z,35.80
2019-04-02T07:03:46.616Z,35.85
2019-04-02T07:06:12.406Z,34.77
2019-04-02T07:08:47.063Z,32.47
2019-04-02T07:11:06.192Z,36.42
2019-04-02T07:13:32.057Z,34.65
2019-04-02T07:15:58.236Z,33.60
2019-04-02T07:18:24.823Z,33.92
2019-04-02T07:20:50.917Z,33.75
2019-04-02T07:23:16.744Z,35.52
2019-04-02T07:25:43.220Z,33.40
2019-04-02T07:28:09.088Z,34.83
2019-04-02T07:30:35.391Z,34.93
2019-04-02T07:33:01.362Z,34.70
2019-04-02T07:35:27.177Z,34.40
2019-04-02T07:37:55.940Z,32.73
2019-04-02T07:40:21.724Z,34.23
2019-04-02T07:42:50.314Z,35.50
2019-04-02T07:45:16.220Z,34.37
2019-04-02T07:47:42.320Z,33.70
2019-04-02T07:50:09.665Z,34.47
2019-04-02T07:52:35.723Z,33.87
2019-04-02T07:55:01.899Z,35.57
2019-04-02T07:57:27.697Z,33.27
2019-04-02T07:59:56.790Z,32.37
2019-04-02T08:02:22.687Z,36.93
2019-04-02T08:04:51.534Z,33.90
2019-04-02T08:07:17.542Z,35.43
2019-04-02T08:09:46.379Z,32.40
2019-04-02T08:12:12.233Z,30.63
2019-04-02T08:14:40.825Z,34.00
2019-04-02T08:17:06.905Z,33.70
2019-04-02T08:19:35.946Z,36.70
2019-04-02T08:22:01.762Z,33.43
2019-04-02T08:24:27.970Z,32.07
2019-04-02T08:26:53.782Z,33.27
2019-04-02T08:29:19.981Z,32.03
2019-04-02T08:31:49.264Z,32.57
2019-04-02T08:34:15.064Z,32.33
2019-04-02T08:36:40.878Z,32.57
2019-04-02T08:39:07.278Z,29.83
2019-04-02T08:41:35.822Z,30.80
2019-04-02T08:44:01.949Z,28.73
2019-04-02T08:46:30.738Z,30.40
2019-04-02T08:48:56.799Z,31.57
2019-04-02T08:51:25.612Z,29.87
2019-04-02T08:53:51.412Z,30.43
2019-04-02T08:56:20.154Z,28.93
2019-04-02T08:58:51.648Z,29.47
2019-04-02T09:01:14.053Z,29.03
2019-04-02T09:03:39.882Z,27.10
2019-04-02T09:06:06.058Z,24.47
2019-04-02T09:08:31.855Z,25.50
2019-04-02T09:10:57.668Z,24.80
2019-04-02T09:13:28.831Z,24.67
2019-04-02T09:15:54.443Z,27.07
2019-04-02T09:18:21.288Z,25.90
2019-04-02T09:20:47.385Z,24.47
2019-04-02T09:23:18.104Z,25.57
2019-04-02T09:25:44.894Z,25.67
2019-04-02T09:28:10.694Z,27.03
2019-04-02T09:30:36.504Z,26.50
2019-04-02T09:33:05.304Z,26.77
2019-04-02T09:35:31.400Z,23.60
2019-04-02T09:37:57.206Z,24.43
2019-04-02T09:40:23.005Z,22.70
2019-04-02T09:42:48.813Z,18.13
2019-04-02T09:45:19.055Z,17.97
2019-04-02T09:47:45.149Z,19.50
2019-04-02T09:50:14.565Z,18.63
2019-04-02T09:52:40.474Z,15.57
2019-04-02T09:55:09.354Z,17.47
2019-04-02T09:57:35.431Z,17.50
2019-04-02T10:00:03.940Z,17.60
2019-04-02T10:02:30.596Z,21.00
2019-04-02T10:04:56.407Z,21.47
2019-04-02T10:07:22.758Z,21.10
2019-04-02T10:09:53.353Z,20.90
2019-04-02T10:12:19.906Z,19.97
2019-04-02T10:14:45.742Z,21.37
2019-04-02T10:17:11.586Z,21.20
2019-04-02T10:19:37.385Z,14.73
2019-04-02T10:22:06.368Z,14.97
2019-04-02T10:24:31.105Z,11.80
2019-04-02T10:27:00.015Z,12.40
2019-04-02T10:29:27.020Z,10.53
2019-04-02T10:31:53.295Z,9.70
2019-04-02T10:34:19.153Z,8.70
2019-04-02T10:36:56.210Z,10.90
2019-04-02T10:39:16.656Z,11.00
2019-04-02T10:41:42.568Z,10.33
2019-04-02T10:44:08.768Z,10.40
2019-04-02T10:46:38.325Z,10.47
2019-04-02T10:49:04.513Z,12.27
2019-04-02T10:51:30.313Z,12.63
2019-04-02T10:53:56.113Z,8.53
2019-04-02T10:56:22.180Z,8.20
2019-04-02T10:58:48.080Z,7.33
2019-04-02T11:01:14.451Z,8.10
2019-04-02T11:03:43.594Z,8.50
2019-04-02T11:06:09.406Z,10.20
2019-04-02T11:08:39.420Z,8.73
2019-04-02T11:11:05.344Z,8.30
2019-04-02T11:13:34.044Z,7.57
2019-04-02T11:15:59.820Z,6.20
2019-04-02T11:18:27.084Z,7.00
2019-04-02T11:20:52.905Z,7.53
2019-04-02T11:23:22.939Z,6.67
2019-04-02T11:25:49.521Z,6.10
2019-04-02T11:28:16.122Z,6.00
2019-04-02T11:30:41.935Z,5.23
2019-04-02T11:33:07.743Z,6.17
2019-04-02T11:35:33.668Z,7.63
2019-04-02T11:37:59.469Z,6.63
2019-04-02T11:40:28.146Z,5.83
2019-04-02T11:42:54.247Z,5.47
2019-04-02T11:45:22.978Z,6.97
2019-04-02T11:47:48.795Z,5.97
2019-04-02T11:50:17.250Z,6.00
2019-04-02T11:52:43.049Z,6.40
2019-04-02T11:55:12.323Z,5.97
2019-04-02T11:57:38.321Z,5.93
2019-04-02T12:00:08.703Z,5.80
2019-04-02T12:02:34.651Z,5.83
2019-04-02T12:05:00.454Z,5.33
2019-04-02T12:07:26.262Z,6.30
2019-04-02T12:09:52.093Z,5.30
2019-04-02T12:12:20.630Z,6.80
2019-04-02T12:14:46.739Z,6.37
2019-04-02T12:17:15.587Z,6.20
2019-04-02T12:19:42.812Z,6.80
2019-04-02T12:22:08.800Z,6.70
2019-04-02T12:24:34.609Z,8.60
2019-04-02T12:27:03.013Z,6.57
2019-04-02T12:29:29.099Z,7.03
2019-04-02T12:31:57.953Z,6.60
2019-04-02T12:34:23.732Z,8.17
2019-04-02T12:36:54.292Z,8.00
2019-04-02T12:39:20.123Z,7.27
2019-04-02T12:41:45.906Z,6.83
2019-04-02T12:44:11.828Z,7.97
2019-04-02T12:46:37.632Z,6.57
2019-04-02T12:49:07.746Z,7.57
2019-04-02T12:51:33.955Z,7.67
2019-04-02T12:54:00.895Z,7.27
2019-04-02T12:56:27.008Z,7.90
2019-04-02T12:58:55.600Z,8.27
2019-04-02T13:01:21.673Z,8.07
2019-04-02T13:03:50.504Z,7.20
2019-04-02T13:06:16.313Z,6.07
2019-04-02T13:08:44.910Z,6.50
2019-04-02T13:11:10.701Z,7.53
2019-04-02T13:13:39.302Z,6.43
2019-04-02T13:16:05.098Z,6.60
2019-04-02T13:18:31.633Z,7.23
2019-04-02T13:20:57.866Z,6.93
2019-04-02T13:23:23.959Z,6.40
2019-04-02T13:25:49.781Z,6.87
2019-04-02T13:28:15.586Z,6.20
2019-04-02T13:30:44.180Z,6.67
2019-04-02T13:33:09.975Z,6.27
2019-04-02T13:35:39.067Z,5.40
2019-04-02T13:38:04.958Z,7.03
2019-04-02T13:40:34.108Z,5.97
2019-04-02T13:42:59.910Z,6.40
2019-04-02T13:45:28.728Z,6.43
2019-04-02T13:47:54.579Z,6.30
2019-04-02T13:50:23.384Z,7.00
2019-04-02T13:52:49.161Z,5.90
2019-04-02T13:55:14.978Z,6.60
2019-04-02T13:57:41.056Z,7.03
2019-04-02T14:00:33.187Z,6.70
2019-04-02T14:02:59.029Z,5.30
2019-04-02T14:05:25.113Z,5.23
2019-04-02T14:07:51.209Z,6.87
2019-04-02T14:10:17.222Z,5.53
2019-04-02T14:12:43.033Z,4.60
2019-04-02T14:15:09.164Z,5.10
2019-04-02T14:17:34.943Z,5.07
2019-04-02T14:20:01.110Z,4.83
2019-04-02T14:22:26.930Z,5.63
2019-04-02T14:24:52.789Z,5.30
2019-04-02T14:27:18.592Z,5.10
2019-04-02T14:29:45.728Z,4.83
2019-04-02T14:32:11.995Z,5.47
2019-04-02T14:34:37.833Z,5.00
2019-04-02T14:37:03.651Z,6.17
2019-04-02T14:39:29.469Z,5.10
2019-04-02T14:41:55.305Z,5.10
2019-04-02T14:44:21.123Z,5.17
2019-04-02T14:46:47.158Z,5.73
2019-04-02T14:49:12.967Z,5.80
2019-04-02T14:51:39.494Z,6.20
2019-04-02T14:54:06.499Z,6.47
2019-04-02T14:56:32.706Z,5.30
2019-04-02T14:58:58.539Z,5.57
2019-04-02T15:01:26.469Z,6.40
2019-04-02T15:03:55.074Z,6.13
2019-04-02T15:06:21.189Z,6.33
2019-04-02T15:08:46.966Z,6.10
2019-04-02T15:11:12.769Z,6.90
2019-04-02T15:13:38.595Z,6.50
2019-04-02T15:16:07.152Z,6.03
2019-04-02T15:18:33.257Z,6.33
2019-04-02T15:21:00.409Z,6.40
2019-04-02T15:23:26.412Z,6.90
2019-04-02T15:25:55.527Z,6.20
2019-04-02T15:28:21.608Z,5.30
2019-04-02T15:30:50.624Z,6.00
2019-04-02T15:33:16.401Z,5.90
2019-04-02T15:35:45.195Z,6.23
2019-04-02T15:38:13.498Z,5.93
2019-04-02T15:40:39.266Z,5.73
2019-04-02T15:43:05.069Z,5.67
2019-04-02T15:45:30.986Z,5.53
2019-04-02T15:47:57.316Z,5.33
2019-04-02T15:50:23.183Z,6.50
2019-04-02T15:52:52.113Z,5.10
2019-04-02T15:55:17.900Z,5.30
2019-04-02T15:57:46.807Z,5.37
2019-04-02T16:00:25.876Z,5.50
2019-04-02T16:02:42.948Z,5.03
2019-04-02T16:05:10.079Z,4.73
2019-04-02T16:07:35.866Z,4.80
2019-04-02T16:10:07.192Z,5.43
2019-04-02T16:12:33.027Z,6.93
2019-04-02T16:14:58.844Z,8.33
2019-04-02T16:17:24.669Z,7.67
2019-04-02T16:19:50.439Z,7.80
2019-04-02T16:22:18.100Z,8.30
2019-04-02T16:24:44.249Z,7.23
2019-04-02T16:27:10.525Z,8.17
2019-04-02T16:29:36.989Z,8.37
2019-04-02T16:32:03.026Z,6.70
2019-04-02T16:34:38.307Z,7.40
2019-04-02T16:36:59.592Z,7.77
2019-04-02T16:39:25.449Z,7.50
2019-04-02T16:41:51.849Z,7.57
2019-04-02T16:44:21.024Z,8.63
2019-04-02T16:46:46.849Z,7.33
2019-04-02T16:49:15.679Z,7.50
2019-04-02T16:51:41.490Z,6.80
2019-04-02T16:54:10.126Z,5.90
2019-04-02T16:56:35.950Z,6.83
2019-04-02T16:59:01.746Z,6.70
2019-04-02T17:01:27.574Z,7.93
2019-04-02T17:03:53.374Z,7.70
2019-04-02T17:06:22.692Z,8.30
2019-04-02T17:08:48.773Z,8.20
2019-04-02T17:11:15.898Z,7.93
2019-04-02T17:13:41.996Z,7.60
2019-04-02T17:16:11.076Z,6.67
2019-04-02T17:18:37.865Z,7.17
2019-04-02T17:21:08.020Z,6.43
2019-04-02T17:23:34.113Z,5.83
2019-04-02T17:26:00.007Z,5.83
2019-04-02T17:28:32.212Z,6.80
2019-04-02T17:30:56.629Z,5.50
2019-04-02T17:33:22.471Z,5.37
2019-04-02T17:35:48.266Z,4.73
2019-04-02T17:38:14.451Z,4.30
2019-04-02T17:40:40.337Z,4.10
2019-04-02T17:43:06.581Z,4.60
2019-04-02T17:45:32.389Z,3.40
2019-04-02T17:48:01.730Z,3.70
2019-04-02T17:50:27.550Z,4.27
2019-04-02T17:52:56.351Z,4.30
2019-04-02T17:55:22.172Z,4.20
2019-04-02T17:57:52.734Z,3.63
2019-04-02T18:00:19.473Z,3.50
2019-04-02T18:02:47.276Z,4.13
2019-04-02T18:05:13.425Z,4.00
2019-04-02T18:07:42.232Z,4.20
2019-04-02T18:10:08.888Z,4.23
2019-04-02T18:12:34.995Z,4.10
2019-04-02T18:15:00.939Z,4.50
2019-04-02T18:17:26.744Z,5.17
2019-04-02T18:19:52.822Z,4.87
2019-04-02T18:22:18.629Z,5.47
2019-04-02T18:24:47.504Z,4.53
2019-04-02T18:27:13.807Z,5.67
2019-04-02T18:29:43.862Z,5.40
2019-04-02T18:32:09.949Z,5.10
2019-04-02T18:34:36.068Z,5.50
2019-04-02T18:37:02.210Z,5.60
2019-04-02T18:39:34.638Z,5.60
2019-04-02T18:42:00.403Z,5.13
2019-04-02T18:44:26.241Z,5.57
2019-04-02T18:46:52.254Z,4.63
2019-04-02T18:49:20.888Z,3.37
2019-04-02T18:51:46.123Z,4.30
2019-04-02T18:54:11.983Z,3.90
2019-04-02T18:56:37.813Z,4.03
2019-04-02T18:59:03.627Z,4.07
2019-04-02T19:01:32.785Z,4.80
2019-04-02T19:04:00.125Z,3.70
2019-04-02T19:06:26.364Z,3.30
2019-04-02T19:08:52.407Z,3.87
2019-04-02T19:11:22.754Z,4.07
2019-04-02T19:13:49.230Z,3.80
2019-04-02T19:16:17.846Z,3.90
2019-04-02T19:18:43.675Z,5.00
2019-04-02T19:21:12.466Z,3.70
2019-04-02T19:23:38.498Z,4.00
2019-04-02T19:26:04.292Z,7.60
2019-04-02T19:28:30.135Z,5.53
2019-04-02T19:30:55.952Z,4.33
2019-04-02T19:33:24.543Z,3.97
2019-04-02T19:35:50.643Z,5.77
2019-04-02T19:38:19.466Z,4.27
2019-04-02T19:40:45.335Z,4.20
2019-04-02T19:43:13.938Z,3.27
2019-04-02T19:45:39.773Z,2.80
2019-04-02T19:48:08.399Z,3.40
2019-04-02T19:50:34.199Z,3.23
2019-04-02T19:53:01.866Z,3.17
2019-04-02T19:55:27.730Z,4.27
2019-04-02T19:57:56.607Z,4.00
2019-04-02T20:00:22.901Z,3.77
2019-04-02T20:02:48.738Z,4.07
2019-04-02T20:05:14.652Z,5.10
2019-04-02T20:07:43.188Z,4.17
2019-04-02T20:10:08.733Z,3.90
2019-04-02T20:12:35.722Z,3.70
2019-04-02T20:15:06.717Z,3.70
2019-04-02T20:17:32.761Z,3.53
2019-04-02T20:19:58.583Z,4.90
2019-04-02T20:22:24.389Z,3.90
2019-04-02T20:24:53.237Z,3.10
2019-04-02T20:27:19.034Z,9.73
2019-04-02T20:29:49.437Z,2.97
2019-04-02T20:32:15.412Z,3.07
2019-04-02T20:34:41.331Z,3.60
2019-04-02T20:37:07.230Z,3.83
2019-04-02T20:39:33.029Z,3.40
2019-04-02T20:41:59.365Z,4.07
2019-04-02T20:44:25.251Z,3.40
2019-04-02T20:46:53.948Z,2.40
2019-04-02T20:49:19.764Z,2.87
2019-04-02T20:51:48.039Z,3.10
2019-04-02T20:54:13.883Z,3.07
2019-04-02T20:56:44.390Z,3.00
2019-04-02T20:59:10.433Z,3.13
2019-04-02T21:01:37.831Z,3.37
2019-04-02T21:04:04.003Z,3.57
2019-04-02T21:06:32.851Z,4.80
2019-04-02T21:08:58.659Z,7.40
2019-04-02T21:11:27.107Z,4.00
2019-04-02T21:13:52.924Z,3.70
2019-04-02T21:16:18.725Z,3.00
2019-04-02T21:18:45.216Z,3.73
2019-04-02T21:21:11.549Z,3.20
2019-04-02T21:23:38.967Z,3.47
2019-04-02T21:26:04.746Z,3.30
2019-04-02T21:28:35.173Z,3.53
2019-04-02T21:31:00.952Z,3.40
2019-04-02T21:33:34.196Z,2.73
2019-04-02T21:35:56.007Z,2.60
2019-04-02T21:38:24.834Z,2.97
2019-04-02T21:40:50.704Z,3.00
2019-04-02T21:43:19.319Z,2.83
2019-04-02T21:45:45.446Z,2.63
2019-04-02T21:48:14.520Z,3.20
2019-04-02T21:50:40.318Z,2.73
2019-04-02T21:53:06.730Z,2.60
2019-04-02T21:55:34.120Z,2.53
2019-04-02T21:58:00.080Z,2.80
2019-04-02T22:00:33.932Z,2.50
2019-04-02T22:02:59.730Z,3.00
2019-04-02T22:05:25.511Z,3.50
2019-04-02T22:07:51.317Z,3.13
2019-04-02T22:10:17.138Z,3.40
2019-04-02T22:12:43.312Z,2.43
2019-04-02T22:15:12.267Z,2.33
2019-04-02T22:17:38.559Z,2.90
2019-04-02T22:20:04.786Z,2.70
2019-04-02T22:22:31.587Z,2.83
2019-04-02T22:24:57.498Z,2.93
2019-04-02T22:27:23.329Z,2.50
2019-04-02T22:29:49.145Z,2.27
2019-04-02T22:32:15.603Z,2.90
2019-04-02T22:34:49.008Z,2.70
2019-04-02T22:37:10.129Z,2.80
2019-04-02T22:39:35.932Z,2.50
2019-04-02T22:42:04.837Z,1.93
2019-04-02T22:44:30.684Z,1.90
2019-04-02T22:46:59.614Z,2.60
2019-04-02T22:49:25.900Z,2.17
2019-04-02T22:51:56.411Z,2.40
2019-04-02T22:54:22.478Z,2.43
2019-04-02T22:56:48.404Z,1.90
2019-04-02T22:59:14.538Z,2.03
2019-04-02T23:01:43.100Z,1.93
2019-04-02T23:04:09.195Z,2.25
2019-04-02T23:06:35.006Z,2.37
2019-04-02T23:09:01.585Z,1.70
2019-04-02T23:11:28.528Z,2.00
2019-04-02T23:13:54.643Z,2.00
2019-04-02T23:16:25.665Z,2.20
2019-04-02T23:18:51.204Z,1.92
2019-04-02T23:21:17.017Z,2.17
2019-04-02T23:23:45.067Z,1.70
2019-04-02T23:26:11.911Z,2.30
2019-04-02T23:28:39.350Z,3.17
2019-04-02T23:31:05.155Z,1.53
2019-04-02T23:33:33.517Z,1.83
2019-04-02T23:35:59.325Z,2.00
2019-04-02T23:38:28.227Z,1.50
2019-04-02T23:44:35.588Z,1.77
2019-04-02T23:47:03.347Z,1.80
2019-04-02T23:49:31.582Z,2.20
2019-04-02T23:51:58.955Z,1.47
2019-04-02T23:54:25.572Z,1.73
2019-04-02T23:56:52.175Z,1.98
2019-04-02T23:59:18.743Z,1.67
